Glen, MS (38846)

12:04 AM CST del 04 Dicembre 2016 (GMT -0600)
Downtown Corinth | | Change Station

Alt. 471 ft 34.93 °N, 88.51 °W | Updated 4 minutes ago

Light Rain
Pioggia leggera
41.4 °F
Sembra 41 °F
N
2.0
Vento Variabile Vento da NE
Gusts 4.0 mph

Oggi
Massima -- | Minima -- °F
--% Possibilità di precip.
Ieri
Massima -- | Minima -- °F
Precip. -- in
Pressione 30.14 in
Visibilità 6.0 miglia
Nuvole Coperto 700 ft
Raffreddamento del vento 41 °F
Punto di rugiada 40 °F
Umidità 96%
Piovosità 0.00 in
Spessore del manto nevoso Non disponibile.
6:45 AM 4:42 PM
Luna crescente, 20% visible
METAR KCRX 040555Z AUTO 04005KT 6SM -RA OVC007 06/05 A3014 RMK AO2 P0003
Pressione 30.14 in
Visibilità 6.0 miglia
Nuvole Coperto 700 ft
Raffreddamento del vento 41 °F
Punto di rugiada 40 °F
Umidità 96%
Piovosità 0.00 in
Spessore del manto nevoso Non disponibile.
6:45 AM 4:42 PM
Luna crescente, 20% visible
METAR KCRX 040555Z AUTO 04005KT 6SM -RA OVC007 06/05 A3014 RMK AO2 P0003

10-Day Weather Forecast

Almanac

Astronomia

Dec. 04, 2016 Alba Tramonto
Ora attuale
Crepuscolo civile
Crepuscolo nautico
Crepuscolo astronomico
Luna
Estensione della luce visibile
Lunghezza del giorno
Tomorrow will be .
, % of the Moon is Illuminated

Gli estremi di oggi

State Highs State Lows

Community

WunderPhotos

Upload Photos

1,955,586 foto caricate!

WunderBlog® & News

Nearby

Qualità dell'aria

  Qualità dell'aria Indice AQ Inquinante
Not available.

Profondità neve

Stazione Profondità Altitudine

Attività sismica

Città  Distanza Mag. Data & Ora
Minimo Magnitudo Mostrato è 2.5.

Temperature delle acque costiere

Località Temperatura

Stations

Stazioni meteo nelle vicinanze

Ubicazione della stazione Temp. Raffreddamento del vento Punto di rugiada Umidità Vento Precip. Alt. Aggiornato Tipo
                   

Watches & Warnings

There are currently no watches in effect.